sensor_id;sensor_type;location;lat;lon;timestamp;temperature;humidity
9925;DHT22;5001;51.674;7.868;2024-03-23T00:54:04;7.60;1.00
9925;DHT22;5001;51.674;7.868;2024-03-23T00:56:30;7.60;1.00
9925;DHT22;5001;51.674;7.868;2024-03-23T00:58:56;7.50;1.00
9925;DHT22;5001;51.674;7.868;2024-03-23T01:01:22;7.50;1.00
9925;DHT22;5001;51.674;7.868;2024-03-23T01:03:48;7.50;1.00
9925;DHT22;5001;51.674;7.868;2024-03-23T01:06:14;7.50;1.00
9925;DHT22;5001;51.674;7.868;2024-03-23T01:08:40;7.60;1.00
9925;DHT22;5001;51.674;7.868;2024-03-23T01:11:06;7.50;1.00
9925;DHT22;5001;51.674;7.868;2024-03-23T01:13:32;7.60;1.00
9925;DHT22;5001;51.674;7.868;2024-03-23T01:15:58;7.50;1.00
9925;DHT22;5001;51.674;7.868;2024-03-23T01:18:24;7.50;1.00
9925;DHT22;5001;51.674;7.868;2024-03-23T01:20:52;7.50;1.00
9925;DHT22;5001;51.674;7.868;2024-03-23T01:23:18;7.50;1.00
9925;DHT22;5001;51.674;7.868;2024-03-23T01:25:51;7.50;1.00
9925;DHT22;5001;51.674;7.868;2024-03-23T01:28:18;7.60;1.00
9925;DHT22;5001;51.674;7.868;2024-03-23T01:30:44;7.60;1.00
9925;DHT22;5001;51.674;7.868;2024-03-23T01:33:10;7.60;1.00
9925;DHT22;5001;51.674;7.868;2024-03-23T01:35:36;7.50;1.00
9925;DHT22;5001;51.674;7.868;2024-03-23T01:38:02;7.50;1.00
9925;DHT22;5001;51.674;7.868;2024-03-23T01:40:28;7.50;1.00
9925;DHT22;5001;51.674;7.868;2024-03-23T01:43:05;7.40;1.00
9925;DHT22;5001;51.674;7.868;2024-03-23T01:45:33;7.40;1.00
9925;DHT22;5001;51.674;7.868;2024-03-23T01:48:00;7.40;1.00
9925;DHT22;5001;51.674;7.868;2024-03-23T01:50:27;7.40;1.00
9925;DHT22;5001;51.674;7.868;2024-03-23T01:52:53;7.40;1.00
9925;DHT22;5001;51.674;7.868;2024-03-23T01:55:20;7.40;1.00
9925;DHT22;5001;51.674;7.868;2024-03-23T01:57:46;7.40;1.00
9925;DHT22;5001;51.674;7.868;2024-03-23T02:00:13;7.40;1.00
9925;DHT22;5001;51.674;7.868;2024-03-23T02:02:45;7.40;1.00
9925;DHT22;5001;51.674;7.868;2024-03-23T02:05:12;7.40;1.00
9925;DHT22;5001;51.674;7.868;2024-03-23T02:07:40;7.40;1.00
9925;DHT22;5001;51.674;7.868;2024-03-23T02:10:07;7.40;1.00
9925;DHT22;5001;51.674;7.868;2024-03-23T02:12:33;7.40;1.00
9925;DHT22;5001;51.674;7.868;2024-03-23T02:15:00;7.40;1.00
9925;DHT22;5001;51.674;7.868;2024-03-23T02:17:26;7.40;1.00
9925;DHT22;5001;51.674;7.868;2024-03-23T02:19:52;7.40;1.00
9925;DHT22;5001;51.674;7.868;2024-03-23T02:22:18;7.40;1.00
9925;DHT22;5001;51.674;7.868;2024-03-23T02:24:44;7.40;1.00
9925;DHT22;5001;51.674;7.868;2024-03-23T02:27:10;7.30;1.00
9925;DHT22;5001;51.674;7.868;2024-03-23T02:29:36;7.30;1.00
9925;DHT22;5001;51.674;7.868;2024-03-23T02:32:03;7.30;1.00
9925;DHT22;5001;51.674;7.868;2024-03-23T02:34:29;7.30;1.00
9925;DHT22;5001;51.674;7.868;2024-03-23T02:36:55;7.30;1.00
9925;DHT22;5001;51.674;7.868;2024-03-23T02:39:20;7.30;1.00
9925;DHT22;5001;51.674;7.868;2024-03-23T02:41:47;7.30;1.00
9925;DHT22;5001;51.674;7.868;2024-03-23T02:44:13;7.20;1.00
9925;DHT22;5001;51.674;7.868;2024-03-23T02:46:40;7.30;1.00
9925;DHT22;5001;51.674;7.868;2024-03-23T02:49:06;7.30;1.00
9925;DHT22;5001;51.674;7.868;2024-03-23T02:51:32;7.30;1.00
9925;DHT22;5001;51.674;7.868;2024-03-23T02:53:58;7.30;1.00
9925;DHT22;5001;51.674;7.868;2024-03-23T02:56:24;7.30;1.00
9925;DHT22;5001;51.674;7.868;2024-03-23T02:58:50;7.20;1.00
9925;DHT22;5001;51.674;7.868;2024-03-23T03:05:16;7.00;1.00
9925;DHT22;5001;51.674;7.868;2024-03-23T03:07:42;6.90;1.00
9925;DHT22;5001;51.674;7.868;2024-03-23T03:10:08;6.90;1.00
9925;DHT22;5001;51.674;7.868;2024-03-23T03:12:37;7.00;1.00
9925;DHT22;5001;51.674;7.868;2024-03-23T03:15:04;6.90;1.00
9925;DHT22;5001;51.674;7.868;2024-03-23T03:17:31;6.80;1.00
9925;DHT22;5001;51.674;7.868;2024-03-23T03:19:56;6.80;1.00
9925;DHT22;5001;51.674;7.868;2024-03-23T03:22:23;6.70;1.00
9925;DHT22;5001;51.674;7.868;2024-03-23T03:24:49;6.60;1.00
9925;DHT22;5001;51.674;7.868;2024-03-23T03:27:15;6.70;1.00
9925;DHT22;5001;51.674;7.868;2024-03-23T03:29:41;6.70;1.00
9925;DHT22;5001;51.674;7.868;2024-03-23T03:32:08;6.80;19.30
9925;DHT22;5001;51.674;7.868;2024-03-23T03:34:34;6.80;26.90
9925;DHT22;5001;51.674;7.868;2024-03-23T03:37:00;6.80;11.20
9925;DHT22;5001;51.674;7.868;2024-03-23T03:39:26;6.70;1.00
9925;DHT22;5001;51.674;7.868;2024-03-23T03:41:52;6.60;1.00
9925;DHT22;5001;51.674;7.868;2024-03-23T03:44:18;6.60;1.00
9925;DHT22;5001;51.674;7.868;2024-03-23T03:46:44;6.50;1.00
9925;DHT22;5001;51.674;7.868;2024-03-23T03:49:10;6.40;1.00
9925;DHT22;5001;51.674;7.868;2024-03-23T03:51:36;6.40;1.00
9925;DHT22;5001;51.674;7.868;2024-03-23T03:54:02;6.30;1.00
9925;DHT22;5001;51.674;7.868;2024-03-23T03:56:28;6.20;1.00
9925;DHT22;5001;51.674;7.868;2024-03-23T03:58:54;6.30;1.00
9925;DHT22;5001;51.674;7.868;2024-03-23T04:01:20;6.20;1.00
9925;DHT22;5001;51.674;7.868;2024-03-23T04:03:46;6.20;1.00
9925;DHT22;5001;51.674;7.868;2024-03-23T04:06:18;6.20;1.00
9925;DHT22;5001;51.674;7.868;2024-03-23T04:08:44;6.20;1.00
9925;DHT22;5001;51.674;7.868;2024-03-23T04:11:10;6.30;1.00
9925;DHT22;5001;51.674;7.868;2024-03-23T04:13:36;6.20;1.00
9925;DHT22;5001;51.674;7.868;2024-03-23T04:16:02;6.30;1.00
9925;DHT22;5001;51.674;7.868;2024-03-23T04:18:29;6.40;1.00
9925;DHT22;5001;51.674;7.868;2024-03-23T04:20:55;6.30;1.00
9925;DHT22;5001;51.674;7.868;2024-03-23T04:23:21;6.30;1.00
9925;DHT22;5001;51.674;7.868;2024-03-23T04:25:47;6.30;1.00
9925;DHT22;5001;51.674;7.868;2024-03-23T04:28:13;6.30;1.00
9925;DHT22;5001;51.674;7.868;2024-03-23T04:30:39;6.30;1.00
9925;DHT22;5001;51.674;7.868;2024-03-23T04:33:05;6.30;1.00
9925;DHT22;5001;51.674;7.868;2024-03-23T04:35:31;6.20;1.00
9925;DHT22;5001;51.674;7.868;2024-03-23T04:37:57;6.20;1.00
9925;DHT22;5001;51.674;7.868;2024-03-23T04:40:25;6.20;1.00
9925;DHT22;5001;51.674;7.868;2024-03-23T04:42:51;6.30;1.00
9925;DHT22;5001;51.674;7.868;2024-03-23T04:45:17;6.40;1.00
9925;DHT22;5001;51.674;7.868;2024-03-23T04:47:43;6.40;1.00
9925;DHT22;5001;51.674;7.868;2024-03-23T04:50:09;6.40;1.00
9925;DHT22;5001;51.674;7.868;2024-03-23T04:52:38;6.40;1.00
9925;DHT22;5001;51.674;7.868;2024-03-23T04:55:04;6.30;1.00
9925;DHT22;5001;51.674;7.868;2024-03-23T04:57:31;6.30;1.00
9925;DHT22;5001;51.674;7.868;2024-03-23T04:59:57;6.20;1.00
9925;DHT22;5001;51.674;7.868;2024-03-23T05:02:23;6.30;1.00
9925;DHT22;5001;51.674;7.868;2024-03-23T05:04:51;6.20;1.00
9925;DHT22;5001;51.674;7.868;2024-03-23T05:07:17;6.20;1.00
9925;DHT22;5001;51.674;7.868;2024-03-23T05:09:43;6.20;1.00
9925;DHT22;5001;51.674;7.868;2024-03-23T05:12:09;6.20;1.00
9925;DHT22;5001;51.674;7.868;2024-03-23T05:14:35;6.20;1.00
9925;DHT22;5001;51.674;7.868;2024-03-23T05:17:01;6.20;1.00
9925;DHT22;5001;51.674;7.868;2024-03-23T05:19:28;6.20;1.00
9925;DHT22;5001;51.674;7.868;2024-03-23T05:21:54;6.30;1.00
9925;DHT22;5001;51.674;7.868;2024-03-23T05:24:20;6.30;1.00
9925;DHT22;5001;51.674;7.868;2024-03-23T05:26:46;6.20;1.00
9925;DHT22;5001;51.674;7.868;2024-03-23T05:29:12;6.20;1.00
9925;DHT22;5001;51.674;7.868;2024-03-23T05:31:39;6.20;1.00
9925;DHT22;5001;51.674;7.868;2024-03-23T05:34:08;6.20;1.00
9925;DHT22;5001;51.674;7.868;2024-03-23T05:36:34;6.20;1.00
9925;DHT22;5001;51.674;7.868;2024-03-23T05:39:02;6.20;1.00
9925;DHT22;5001;51.674;7.868;2024-03-23T05:41:28;6.10;1.00
9925;DHT22;5001;51.674;7.868;2024-03-23T05:43:54;6.20;1.00
9925;DHT22;5001;51.674;7.868;2024-03-23T05:46:20;6.20;1.00
9925;DHT22;5001;51.674;7.868;2024-03-23T05:48:46;6.30;1.00
9925;DHT22;5001;51.674;7.868;2024-03-23T05:51:12;6.30;1.00
9925;DHT22;5001;51.674;7.868;2024-03-23T05:53:39;6.30;1.00
9925;DHT22;5001;51.674;7.868;2024-03-23T05:56:05;6.30;1.00
9925;DHT22;5001;51.674;7.868;2024-03-23T05:58:32;6.40;1.00
9925;DHT22;5001;51.674;7.868;2024-03-23T06:01:02;6.30;1.00
9925;DHT22;5001;51.674;7.868;2024-03-23T06:03:29;6.40;1.00
9925;DHT22;5001;51.674;7.868;2024-03-23T06:05:55;6.40;1.00
9925;DHT22;5001;51.674;7.868;2024-03-23T06:08:22;6.40;1.00
9925;DHT22;5001;51.674;7.868;2024-03-23T06:10:49;6.40;1.00
9925;DHT22;5001;51.674;7.868;2024-03-23T06:13:16;6.30;1.00
9925;DHT22;5001;51.674;7.868;2024-03-23T06:15:45;6.30;1.00
9925;DHT22;5001;51.674;7.868;2024-03-23T06:18:12;6.30;1.00
9925;DHT22;5001;51.674;7.868;2024-03-23T06:20:38;6.40;1.00
9925;DHT22;5001;51.674;7.868;2024-03-23T06:23:05;6.50;1.00
9925;DHT22;5001;51.674;7.868;2024-03-23T06:25:31;6.60;1.00
9925;DHT22;5001;51.674;7.868;2024-03-23T06:27:57;6.70;1.00
9925;DHT22;5001;51.674;7.868;2024-03-23T06:30:24;6.80;1.00
9925;DHT22;5001;51.674;7.868;2024-03-23T06:32:50;6.80;1.00
9925;DHT22;5001;51.674;7.868;2024-03-23T06:35:16;6.90;1.00
9925;DHT22;5001;51.674;7.868;2024-03-23T06:37:42;6.90;1.00
9925;DHT22;5001;51.674;7.868;2024-03-23T06:40:08;6.80;1.00
9925;DHT22;5001;51.674;7.868;2024-03-23T06:42:36;6.80;1.00
9925;DHT22;5001;51.674;7.868;2024-03-23T06:45:03;6.90;1.00
9925;DHT22;5001;51.674;7.868;2024-03-23T06:47:30;6.90;1.00
9925;DHT22;5001;51.674;7.868;2024-03-23T06:49:57;7.00;1.00
9925;DHT22;5001;51.674;7.868;2024-03-23T06:52:41;7.00;1.00
9925;DHT22;5001;51.674;7.868;2024-03-23T06:55:51;7.30;1.00
9925;DHT22;5001;51.674;7.868;2024-03-23T08:19:49;20.30;99.90
9925;DHT22;5001;51.674;7.868;2024-03-23T08:22:15;22.40;99.90
9925;DHT22;5001;51.674;7.868;2024-03-23T08:24:41;19.70;99.90
9925;DHT22;5001;51.674;7.868;2024-03-23T08:27:07;20.60;99.90
9925;DHT22;5001;51.674;7.868;2024-03-23T08:29:33;22.80;99.90
9925;DHT22;5001;51.674;7.868;2024-03-23T08:31:59;23.20;99.90
9925;DHT22;5001;51.674;7.868;2024-03-23T08:34:26;19.40;99.90
9925;DHT22;5001;51.674;7.868;2024-03-23T08:36:52;17.00;99.90
9925;DHT22;5001;51.674;7.868;2024-03-23T08:39:18;15.10;99.90
9925;DHT22;5001;51.674;7.868;2024-03-23T08:41:45;13.90;99.90
9925;DHT22;5001;51.674;7.868;2024-03-23T08:44:12;12.60;99.90
9925;DHT22;5001;51.674;7.868;2024-03-23T08:46:38;12.10;99.90
9925;DHT22;5001;51.674;7.868;2024-03-23T08:49:04;11.40;99.90
9925;DHT22;5001;51.674;7.868;2024-03-23T08:51:30;10.90;99.90
9925;DHT22;5001;51.674;7.868;2024-03-23T08:53:57;10.50;99.90
9925;DHT22;5001;51.674;7.868;2024-03-23T08:56:23;10.40;99.90
9925;DHT22;5001;51.674;7.868;2024-03-23T08:58:48;11.50;99.90
9925;DHT22;5001;51.674;7.868;2024-03-23T09:01:14;13.00;99.90
9925;DHT22;5001;51.674;7.868;2024-03-23T09:03:41;13.30;99.90
9925;DHT22;5001;51.674;7.868;2024-03-23T09:06:11;13.90;99.90
9925;DHT22;5001;51.674;7.868;2024-03-23T09:08:38;18.70;99.90
9925;DHT22;5001;51.674;7.868;2024-03-23T09:11:12;20.30;99.90
9925;DHT22;5001;51.674;7.868;2024-03-23T09:13:38;24.30;99.90
9925;DHT22;5001;51.674;7.868;2024-03-23T09:16:05;27.20;99.90
9925;DHT22;5001;51.674;7.868;2024-03-23T09:18:33;28.30;99.90
9925;DHT22;5001;51.674;7.868;2024-03-23T09:21:01;22.30;99.90
9925;DHT22;5001;51.674;7.868;2024-03-23T09:23:27;17.60;99.90
9925;DHT22;5001;51.674;7.868;2024-03-23T09:25:53;14.10;99.90
9925;DHT22;5001;51.674;7.868;2024-03-23T09:28:19;13.90;99.90
9925;DHT22;5001;51.674;7.868;2024-03-23T09:30:45;19.70;99.90
9925;DHT22;5001;51.674;7.868;2024-03-23T09:33:11;22.80;99.90
9925;DHT22;5001;51.674;7.868;2024-03-23T09:35:43;25.20;99.90
9925;DHT22;5001;51.674;7.868;2024-03-23T09:38:10;24.70;99.90
9925;DHT22;5001;51.674;7.868;2024-03-23T09:40:49;24.50;99.90
9925;DHT22;5001;51.674;7.868;2024-03-23T09:43:15;24.80;99.90
9925;DHT22;5001;51.674;7.868;2024-03-23T09:45:42;24.40;99.90
9925;DHT22;5001;51.674;7.868;2024-03-23T09:48:09;22.30;99.90
9925;DHT22;5001;51.674;7.868;2024-03-23T09:50:39;20.20;99.90
9925;DHT22;5001;51.674;7.868;2024-03-23T09:53:11;16.00;99.90
9925;DHT22;5001;51.674;7.868;2024-03-23T09:55:39;15.80;99.90
9925;DHT22;5001;51.674;7.868;2024-03-23T09:58:05;16.70;99.90
9925;DHT22;5001;51.674;7.868;2024-03-23T10:00:32;16.50;99.90
9925;DHT22;5001;51.674;7.868;2024-03-23T10:02:59;19.80;99.90
9925;DHT22;5001;51.674;7.868;2024-03-23T10:05:31;19.00;99.90
9925;DHT22;5001;51.674;7.868;2024-03-23T10:10:45;21.60;99.90
9925;DHT22;5001;51.674;7.868;2024-03-23T10:13:24;24.40;99.90
9925;DHT22;5001;51.674;7.868;2024-03-23T10:15:58;20.70;99.90
9925;DHT22;5001;51.674;7.868;2024-03-23T10:18:25;17.30;99.90
9925;DHT22;5001;51.674;7.868;2024-03-23T10:21:06;14.90;99.90
9925;DHT22;5001;51.674;7.868;2024-03-23T10:23:38;12.50;99.90
9925;DHT22;5001;51.674;7.868;2024-03-23T10:26:18;12.20;99.90
9925;DHT22;5001;51.674;7.868;2024-03-23T10:28:58;12.20;99.90
9925;DHT22;5001;51.674;7.868;2024-03-23T10:31:30;12.20;99.90
9925;DHT22;5001;51.674;7.868;2024-03-23T10:33:57;13.00;99.90
9925;DHT22;5001;51.674;7.868;2024-03-23T10:36:24;17.80;99.90
9925;DHT22;5001;51.674;7.868;2024-03-23T10:38:52;20.10;99.90
9925;DHT22;5001;51.674;7.868;2024-03-23T10:41:18;18.60;99.90
9925;DHT22;5001;51.674;7.868;2024-03-23T10:43:46;16.90;99.90
9925;DHT22;5001;51.674;7.868;2024-03-23T10:46:12;15.70;99.90
9925;DHT22;5001;51.674;7.868;2024-03-23T10:48:39;16.20;99.90
9925;DHT22;5001;51.674;7.868;2024-03-23T10:51:08;18.70;99.90
9925;DHT22;5001;51.674;7.868;2024-03-23T10:53:35;19.30;99.90
9925;DHT22;5001;51.674;7.868;2024-03-23T10:56:04;20.80;99.90
9925;DHT22;5001;51.674;7.868;2024-03-23T11:01:03;20.60;99.90
9925;DHT22;5001;51.674;7.868;2024-03-23T11:05:56;22.40;99.90
9925;DHT22;5001;51.674;7.868;2024-03-23T11:11:17;15.90;99.90
9925;DHT22;5001;51.674;7.868;2024-03-23T11:13:47;17.70;99.90
9925;DHT22;5001;51.674;7.868;2024-03-23T11:16:21;17.30;99.90
9925;DHT22;5001;51.674;7.868;2024-03-23T11:18:47;16.50;99.90
9925;DHT22;5001;51.674;7.868;2024-03-23T11:21:52;16.10;99.90
9925;DHT22;5001;51.674;7.868;2024-03-23T11:24:22;15.90;99.90
9925;DHT22;5001;51.674;7.868;2024-03-23T11:26:48;15.80;99.90
9925;DHT22;5001;51.674;7.868;2024-03-23T11:29:16;14.60;99.90
9925;DHT22;5001;51.674;7.868;2024-03-23T11:31:51;14.30;99.90
9925;DHT22;5001;51.674;7.868;2024-03-23T11:34:18;13.70;99.90
9925;DHT22;5001;51.674;7.868;2024-03-23T11:36:45;13.30;99.90
9925;DHT22;5001;51.674;7.868;2024-03-23T11:39:19;12.90;99.90
9925;DHT22;5001;51.674;7.868;2024-03-23T11:41:50;12.50;99.90
9925;DHT22;5001;51.674;7.868;2024-03-23T11:44:17;12.30;99.90
9925;DHT22;5001;51.674;7.868;2024-03-23T11:46:43;12.10;99.90
9925;DHT22;5001;51.674;7.868;2024-03-23T11:51:51;12.10;99.90
9925;DHT22;5001;51.674;7.868;2024-03-23T11:54:20;12.70;99.90
9925;DHT22;5001;51.674;7.868;2024-03-23T11:57:00;11.40;99.90
9925;DHT22;5001;51.674;7.868;2024-03-23T12:01:59;10.00;99.90
9925;DHT22;5001;51.674;7.868;2024-03-23T12:04:29;10.00;99.90
9925;DHT22;5001;51.674;7.868;2024-03-23T12:09:36;9.40;99.90
9925;DHT22;5001;51.674;7.868;2024-03-23T12:12:14;9.50;99.90
9925;DHT22;5001;51.674;7.868;2024-03-23T12:15:03;9.30;99.90
9925;DHT22;5001;51.674;7.868;2024-03-23T12:17:29;9.70;99.90
9925;DHT22;5001;51.674;7.868;2024-03-23T12:19:55;10.60;99.90
9925;DHT22;5001;51.674;7.868;2024-03-23T12:22:21;11.90;99.90
9925;DHT22;5001;51.674;7.868;2024-03-23T12:24:47;13.10;99.90
9925;DHT22;5001;51.674;7.868;2024-03-23T12:27:13;13.70;99.90
9925;DHT22;5001;51.674;7.868;2024-03-23T12:29:41;13.90;99.90
9925;DHT22;5001;51.674;7.868;2024-03-23T12:32:12;14.60;99.90
9925;DHT22;5001;51.674;7.868;2024-03-23T12:34:38;14.00;99.90
9925;DHT22;5001;51.674;7.868;2024-03-23T12:37:05;13.20;99.90
9925;DHT22;5001;51.674;7.868;2024-03-23T12:39:32;12.00;99.90
9925;DHT22;5001;51.674;7.868;2024-03-23T12:41:58;13.00;99.90
9925;DHT22;5001;51.674;7.868;2024-03-23T12:44:24;13.40;99.90
9925;DHT22;5001;51.674;7.868;2024-03-23T12:46:50;12.30;99.90
9925;DHT22;5001;51.674;7.868;2024-03-23T12:49:16;11.30;99.90
9925;DHT22;5001;51.674;7.868;2024-03-23T12:51:53;12.10;99.90
9925;DHT22;5001;51.674;7.868;2024-03-23T12:54:19;12.20;99.90
9925;DHT22;5001;51.674;7.868;2024-03-23T12:56:46;12.80;99.90
9925;DHT22;5001;51.674;7.868;2024-03-23T12:59:11;12.70;99.90
9925;DHT22;5001;51.674;7.868;2024-03-23T13:01:39;12.30;99.90
9925;DHT22;5001;51.674;7.868;2024-03-23T13:04:05;12.80;99.90
9925;DHT22;5001;51.674;7.868;2024-03-23T13:06:31;13.00;99.90
9925;DHT22;5001;51.674;7.868;2024-03-23T13:09:01;12.60;99.90
9925;DHT22;5001;51.674;7.868;2024-03-23T13:11:27;12.60;99.90
9925;DHT22;5001;51.674;7.868;2024-03-23T13:13:54;12.00;99.90
9925;DHT22;5001;51.674;7.868;2024-03-23T13:16:20;12.00;99.90
9925;DHT22;5001;51.674;7.868;2024-03-23T13:18:46;11.70;99.90
9925;DHT22;5001;51.674;7.868;2024-03-23T13:21:12;11.60;99.90
9925;DHT22;5001;51.674;7.868;2024-03-23T13:23:39;10.90;99.90
9925;DHT22;5001;51.674;7.868;2024-03-23T13:26:08;10.00;99.90
9925;DHT22;5001;51.674;7.868;2024-03-23T13:28:34;9.60;99.90
9925;DHT22;5001;51.674;7.868;2024-03-23T13:31:01;9.80;99.90
9925;DHT22;5001;51.674;7.868;2024-03-23T13:33:31;9.70;99.90
9925;DHT22;5001;51.674;7.868;2024-03-23T13:36:00;10.40;99.90
9925;DHT22;5001;51.674;7.868;2024-03-23T13:38:26;11.30;99.90
9925;DHT22;5001;51.674;7.868;2024-03-23T13:40:59;12.00;99.90
9925;DHT22;5001;51.674;7.868;2024-03-23T13:43:26;12.00;99.90
9925;DHT22;5001;51.674;7.868;2024-03-23T13:45:59;11.60;99.90
9925;DHT22;5001;51.674;7.868;2024-03-23T13:48:27;11.40;99.90
9925;DHT22;5001;51.674;7.868;2024-03-23T13:51:02;10.90;99.90
9925;DHT22;5001;51.674;7.868;2024-03-23T13:53:29;10.80;99.90
9925;DHT22;5001;51.674;7.868;2024-03-23T13:55:55;10.50;99.90
9925;DHT22;5001;51.674;7.868;2024-03-23T13:58:22;10.20;99.90
9925;DHT22;5001;51.674;7.868;2024-03-23T14:00:49;10.00;99.90
9925;DHT22;5001;51.674;7.868;2024-03-23T14:03:15;10.20;99.90
9925;DHT22;5001;51.674;7.868;2024-03-23T14:05:41;10.40;99.90
9925;DHT22;5001;51.674;7.868;2024-03-23T14:08:08;10.00;99.90
9925;DHT22;5001;51.674;7.868;2024-03-23T14:10:35;9.60;99.90
9925;DHT22;5001;51.674;7.868;2024-03-23T14:13:04;9.40;99.90
9925;DHT22;5001;51.674;7.868;2024-03-23T14:15:30;9.30;99.90
9925;DHT22;5001;51.674;7.868;2024-03-23T14:17:56;9.20;99.90
9925;DHT22;5001;51.674;7.868;2024-03-23T14:20:22;9.30;99.90
9925;DHT22;5001;51.674;7.868;2024-03-23T14:22:49;9.50;99.90
9925;DHT22;5001;51.674;7.868;2024-03-23T14:25:15;9.70;99.90
9925;DHT22;5001;51.674;7.868;2024-03-23T14:27:44;9.70;99.90
9925;DHT22;5001;51.674;7.868;2024-03-23T14:30:11;9.70;99.90
9925;DHT22;5001;51.674;7.868;2024-03-23T14:32:38;9.80;99.90
9925;DHT22;5001;51.674;7.868;2024-03-23T14:35:04;9.70;99.90
9925;DHT22;5001;51.674;7.868;2024-03-23T14:37:30;9.80;99.90
9925;DHT22;5001;51.674;7.868;2024-03-23T14:39:57;9.70;99.90
9925;DHT22;5001;51.674;7.868;2024-03-23T14:42:24;9.40;99.90
9925;DHT22;5001;51.674;7.868;2024-03-23T14:44:52;9.50;99.90
9925;DHT22;5001;51.674;7.868;2024-03-23T14:47:19;9.40;99.90
9925;DHT22;5001;51.674;7.868;2024-03-23T14:49:45;9.50;99.90
9925;DHT22;5001;51.674;7.868;2024-03-23T14:52:16;9.30;99.90
9925;DHT22;5001;51.674;7.868;2024-03-23T14:54:43;9.00;99.90
9925;DHT22;5001;51.674;7.868;2024-03-23T14:57:09;9.30;99.90
9925;DHT22;5001;51.674;7.868;2024-03-23T14:59:36;9.80;99.90
9925;DHT22;5001;51.674;7.868;2024-03-23T15:02:04;10.40;99.90
9925;DHT22;5001;51.674;7.868;2024-03-23T15:04:30;10.60;99.90
9925;DHT22;5001;51.674;7.868;2024-03-23T15:06:56;10.40;99.90
9925;DHT22;5001;51.674;7.868;2024-03-23T15:09:22;10.40;99.90
9925;DHT22;5001;51.674;7.868;2024-03-23T15:11:48;10.30;99.90
9925;DHT22;5001;51.674;7.868;2024-03-23T15:14:15;10.30;99.90
9925;DHT22;5001;51.674;7.868;2024-03-23T15:16:41;10.30;99.90
9925;DHT22;5001;51.674;7.868;2024-03-23T15:19:08;10.30;99.90
9925;DHT22;5001;51.674;7.868;2024-03-23T15:21:34;10.20;99.90
9925;DHT22;5001;51.674;7.868;2024-03-23T15:24:01;10.20;99.90
9925;DHT22;5001;51.674;7.868;2024-03-23T15:26:27;10.00;99.90
9925;DHT22;5001;51.674;7.868;2024-03-23T15:28:53;9.60;99.90
9925;DHT22;5001;51.674;7.868;2024-03-23T15:31:39;9.50;99.90
9925;DHT22;5001;51.674;7.868;2024-03-23T15:34:05;9.90;99.90
9925;DHT22;5001;51.674;7.868;2024-03-23T15:36:36;10.00;99.90
9925;DHT22;5001;51.674;7.868;2024-03-23T15:39:05;9.80;99.90
9925;DHT22;5001;51.674;7.868;2024-03-23T15:41:31;10.00;99.90
9925;DHT22;5001;51.674;7.868;2024-03-23T15:43:58;10.00;99.90
9925;DHT22;5001;51.674;7.868;2024-03-23T15:46:24;9.90;99.90
9925;DHT22;5001;51.674;7.868;2024-03-23T15:48:50;9.80;99.90
9925;DHT22;5001;51.674;7.868;2024-03-23T15:51:16;9.80;99.90
9925;DHT22;5001;51.674;7.868;2024-03-23T15:53:43;9.70;99.90
9925;DHT22;5001;51.674;7.868;2024-03-23T15:56:09;9.70;99.90
9925;DHT22;5001;51.674;7.868;2024-03-23T15:58:36;9.80;99.90
9925;DHT22;5001;51.674;7.868;2024-03-23T16:01:04;9.90;99.90
9925;DHT22;5001;51.674;7.868;2024-03-23T16:03:31;9.80;99.90
9925;DHT22;5001;51.674;7.868;2024-03-23T16:06:00;9.70;99.90
9925;DHT22;5001;51.674;7.868;2024-03-23T16:08:26;9.80;99.90
9925;DHT22;5001;51.674;7.868;2024-03-23T16:10:53;9.90;99.90
9925;DHT22;5001;51.674;7.868;2024-03-23T16:13:20;9.90;99.90
9925;DHT22;5001;51.674;7.868;2024-03-23T16:16:03;9.70;99.90
9925;DHT22;5001;51.674;7.868;2024-03-23T16:18:32;9.50;99.90
9925;DHT22;5001;51.674;7.868;2024-03-23T16:21:00;9.50;99.90
9925;DHT22;5001;51.674;7.868;2024-03-23T16:23:26;9.80;99.90
9925;DHT22;5001;51.674;7.868;2024-03-23T16:25:55;9.90;99.90
9925;DHT22;5001;51.674;7.868;2024-03-23T16:28:29;9.70;99.90
9925;DHT22;5001;51.674;7.868;2024-03-23T16:33:24;9.20;99.90
9925;DHT22;5001;51.674;7.868;2024-03-23T16:36:07;9.20;99.90
9925;DHT22;5001;51.674;7.868;2024-03-23T16:38:36;9.40;99.90
9925;DHT22;5001;51.674;7.868;2024-03-23T16:41:04;9.40;99.90
9925;DHT22;5001;51.674;7.868;2024-03-23T16:43:34;9.30;99.90
9925;DHT22;5001;51.674;7.868;2024-03-23T16:48:31;9.10;99.90
9925;DHT22;5001;51.674;7.868;2024-03-23T16:50:59;9.00;99.90
9925;DHT22;5001;51.674;7.868;2024-03-23T16:53:26;9.00;99.90
9925;DHT22;5001;51.674;7.868;2024-03-23T16:56:02;9.10;99.90
9925;DHT22;5001;51.674;7.868;2024-03-23T16:58:33;9.00;99.90
9925;DHT22;5001;51.674;7.868;2024-03-23T17:01:10;8.90;99.90
9925;DHT22;5001;51.674;7.868;2024-03-23T17:03:47;8.80;99.90
9925;DHT22;5001;51.674;7.868;2024-03-23T17:06:17;8.70;99.90
9925;DHT22;5001;51.674;7.868;2024-03-23T17:08:49;8.50;99.90
9925;DHT22;5001;51.674;7.868;2024-03-23T17:11:15;8.50;99.90
9925;DHT22;5001;51.674;7.868;2024-03-23T17:13:43;8.50;99.90
9925;DHT22;5001;51.674;7.868;2024-03-23T17:16:09;8.30;99.90
9925;DHT22;5001;51.674;7.868;2024-03-23T17:18:36;8.20;99.90
9925;DHT22;5001;51.674;7.868;2024-03-23T17:21:02;8.20;99.90
9925;DHT22;5001;51.674;7.868;2024-03-23T17:23:30;8.10;99.90
9925;DHT22;5001;51.674;7.868;2024-03-23T17:25:57;8.10;99.90
9925;DHT22;5001;51.674;7.868;2024-03-23T17:28:23;8.00;99.90
9925;DHT22;5001;51.674;7.868;2024-03-23T17:30:49;8.00;99.90
9925;DHT22;5001;51.674;7.868;2024-03-23T17:33:16;7.90;99.90
9925;DHT22;5001;51.674;7.868;2024-03-23T17:35:47;7.90;99.90
9925;DHT22;5001;51.674;7.868;2024-03-23T17:38:13;8.00;99.90
9925;DHT22;5001;51.674;7.868;2024-03-23T17:40:40;7.90;99.90
9925;DHT22;5001;51.674;7.868;2024-03-23T17:43:06;7.90;99.90
9925;DHT22;5001;51.674;7.868;2024-03-23T17:45:32;7.80;99.90
9925;DHT22;5001;51.674;7.868;2024-03-23T17:47:57;7.70;99.90
9925;DHT22;5001;51.674;7.868;2024-03-23T17:50:24;7.70;99.90
9925;DHT22;5001;51.674;7.868;2024-03-23T17:52:50;7.70;99.90
9925;DHT22;5001;51.674;7.868;2024-03-23T17:55:16;7.70;99.90
9925;DHT22;5001;51.674;7.868;2024-03-23T17:57:42;7.70;99.90
9925;DHT22;5001;51.674;7.868;2024-03-23T18:00:08;7.80;99.90
9925;DHT22;5001;51.674;7.868;2024-03-23T18:02:39;7.90;99.90
9925;DHT22;5001;51.674;7.868;2024-03-23T18:05:05;7.70;99.90
9925;DHT22;5001;51.674;7.868;2024-03-23T18:07:32;7.20;99.90
9925;DHT22;5001;51.674;7.868;2024-03-23T18:09:58;7.10;99.90
9925;DHT22;5001;51.674;7.868;2024-03-23T18:12:24;7.00;99.90
9925;DHT22;5001;51.674;7.868;2024-03-23T18:14:51;7.10;99.90
9925;DHT22;5001;51.674;7.868;2024-03-23T18:17:17;7.00;99.90
9925;DHT22;5001;51.674;7.868;2024-03-23T18:19:43;6.80;99.90
9925;DHT22;5001;51.674;7.868;2024-03-23T18:22:09;6.40;99.90
9925;DHT22;5001;51.674;7.868;2024-03-23T18:24:35;6.20;99.90
9925;DHT22;5001;51.674;7.868;2024-03-23T18:27:01;6.20;99.90
9925;DHT22;5001;51.674;7.868;2024-03-23T18:29:27;6.10;99.90
9925;DHT22;5001;51.674;7.868;2024-03-23T18:31:53;5.90;99.90
9925;DHT22;5001;51.674;7.868;2024-03-23T18:34:19;5.80;99.90
9925;DHT22;5001;51.674;7.868;2024-03-23T18:36:45;5.70;99.90
9925;DHT22;5001;51.674;7.868;2024-03-23T18:39:11;5.60;99.90
9925;DHT22;5001;51.674;7.868;2024-03-23T18:41:38;5.50;99.90
9925;DHT22;5001;51.674;7.868;2024-03-23T18:44:04;5.40;99.90
9925;DHT22;5001;51.674;7.868;2024-03-23T18:46:30;5.20;99.90
9925;DHT22;5001;51.674;7.868;2024-03-23T18:48:56;5.10;99.90
9925;DHT22;5001;51.674;7.868;2024-03-23T18:51:22;5.00;99.90
9925;DHT22;5001;51.674;7.868;2024-03-23T18:53:52;4.90;99.90
9925;DHT22;5001;51.674;7.868;2024-03-23T18:56:18;4.90;99.90
9925;DHT22;5001;51.674;7.868;2024-03-23T18:58:44;4.90;99.90
9925;DHT22;5001;51.674;7.868;2024-03-23T19:01:10;4.80;99.90